Time;durP1;ratioP1;P1;durP2;ratioP2;P2;SDS_P1;SDS_P2;PMS_P1;PMS_P2;Temp;Humidity;BMP_temperature;BMP_pressure;BME280_temperature;BME280_humidity;BME280_pressure;Samples;Min_cycle;Max_cycle;Signal;HPM_P1;HPM_P2
2021/05/05 00:01:56;;;;;;;;;;;10.10;68.90;;;;;;4272422;33;20018;-72
2021/05/05 00:04:23;;;;;;;;;;;10.10;69.10;;;;;;4273862;33;20023;-72
2021/05/05 00:06:50;;;;;;;;;;;10.10;69.10;;;;;;4276984;33;20003;-72
2021/05/05 00:09:17;;;;;;;;;;;10.00;69.00;;;;;;4277180;33;20013;-72
2021/05/05 00:11:44;;;;;;;;;;;9.90;69.10;;;;;;4276451;33;20002;-72
2021/05/05 00:14:14;;;;;;;;;;;10.00;69.40;;;;;;4275467;33;20438;-72
2021/05/05 00:16:41;;;;;;;;;;;9.90;69.30;;;;;;4275449;33;20372;-72
2021/05/05 00:19:08;;;;;;;;;;;9.80;69.20;;;;;;4276841;33;20044;-72
2021/05/05 00:21:34;;;;;;;;;;;9.80;69.30;;;;;;4276844;33;20071;-72
2021/05/05 00:24:01;;;;;;;;;;;9.80;69.50;;;;;;4276835;33;20003;-72
2021/05/05 00:26:28;;;;;;;;;;;9.70;69.60;;;;;;4275206;33;20007;-72
2021/05/05 00:28:57;;;;;;;;;;;9.80;69.70;;;;;;4276853;33;20013;-71
2021/05/05 00:31:24;;;;;;;;;;;9.80;69.50;;;;;;4276550;33;20025;-71
2021/05/05 00:33:51;;;;;;;;;;;9.80;69.50;;;;;;4276423;33;20019;-71
2021/05/05 00:36:18;;;;;;;;;;;9.80;69.50;;;;;;4275137;33;20431;-72
2021/05/05 00:38:48;;;;;;;;;;;9.80;69.60;;;;;;4274750;33;20077;-72
2021/05/05 00:41:17;;;;;;;;;;;9.80;69.70;;;;;;4276024;33;20016;-71
2021/05/05 00:43:44;;;;;;;;;;;9.80;69.90;;;;;;4276068;33;20427;-72
2021/05/05 00:46:11;;;;;;;;;;;9.80;70.20;;;;;;4276312;33;20022;-71
2021/05/05 00:48:40;;;;;;;;;;;9.70;70.20;;;;;;4276116;33;20464;-72
2021/05/05 00:51:07;;;;;;;;;;;9.70;70.40;;;;;;4274498;33;20089;-72
2021/05/05 00:53:34;;;;;;;;;;;9.70;70.30;;;;;;4275603;33;20019;-72
2021/05/05 00:56:01;;;;;;;;;;;9.70;70.30;;;;;;4276108;33;20018;-72
2021/05/05 00:58:28;;;;;;;;;;;9.70;70.50;;;;;;4262838;33;19999;-71
2021/05/05 01:00:55;;;;;;;;;;;9.70;70.70;;;;;;4275919;33;20015;-71
2021/05/05 01:03:22;;;;;;;;;;;9.70;70.90;;;;;;4289244;33;20021;-72
2021/05/05 01:05:49;;;;;;;;;;;9.70;71.10;;;;;;4277297;33;20028;-72
2021/05/05 01:08:18;;;;;;;;;;;9.70;71.50;;;;;;4289781;33;20006;-72
2021/05/05 01:10:45;;;;;;;;;;;9.60;72.20;;;;;;4289999;33;20019;-72
2021/05/05 01:13:12;;;;;;;;;;;9.60;72.10;;;;;;4265317;33;20305;-72
2021/05/05 01:15:40;;;;;;;;;;;9.50;72.40;;;;;;4289995;33;20376;-72
2021/05/05 01:18:07;;;;;;;;;;;9.50;72.20;;;;;;4276089;33;20087;-72
2021/05/05 01:20:33;;;;;;;;;;;9.40;72.40;;;;;;4290479;33;20442;-72
2021/05/05 01:23:00;;;;;;;;;;;9.40;72.20;;;;;;4289508;33;20014;-72
2021/05/05 01:25:30;;;;;;;;;;;9.40;72.40;;;;;;4290595;33;20089;-72
2021/05/05 01:27:57;;;;;;;;;;;9.40;72.60;;;;;;4289917;33;20025;-72
2021/05/05 01:30:23;;;;;;;;;;;9.40;72.60;;;;;;4277149;33;20020;-72
2021/05/05 01:32:50;;;;;;;;;;;9.40;72.70;;;;;;4289416;33;20020;-72
2021/05/05 01:35:18;;;;;;;;;;;9.40;72.60;;;;;;4276950;33;20084;-72
2021/05/05 01:37:45;;;;;;;;;;;9.40;72.70;;;;;;4290205;33;20006;-72
2021/05/05 01:40:23;;;;;;;;;;;9.30;72.70;;;;;;4289931;33;20002;-72
2021/05/05 01:42:49;;;;;;;;;;;9.30;72.80;;;;;;4276865;33;20014;-72
2021/05/05 01:45:16;;;;;;;;;;;9.30;73.10;;;;;;4289678;33;20021;-72
2021/05/05 01:47:43;;;;;;;;;;;9.30;73.20;;;;;;4290122;33;20020;-72
2021/05/05 01:50:10;;;;;;;;;;;9.30;73.10;;;;;;4289471;33;20013;-72
2021/05/05 01:52:37;;;;;;;;;;;9.30;73.20;;;;;;4289543;33;20015;-72
2021/05/05 01:55:04;;;;;;;;;;;9.20;73.10;;;;;;4289535;33;20006;-72
2021/05/05 01:57:39;;;;;;;;;;;9.20;73.10;;;;;;4289488;33;20005;-72
2021/05/05 02:00:08;;;;;;;;;;;9.20;73.10;;;;;;4276435;33;20456;-72
2021/05/05 02:02:35;;;;;;;;;;;9.20;73.30;;;;;;4273702;33;20022;-72
2021/05/05 02:05:03;;;;;;;;;;;9.20;73.60;;;;;;4275251;33;20011;-72
2021/05/05 02:07:29;;;;;;;;;;;9.20;73.50;;;;;;4274543;33;20010;-72
2021/05/05 02:09:56;;;;;;;;;;;9.20;73.50;;;;;;4275431;33;20025;-72
2021/05/05 02:12:23;;;;;;;;;;;9.20;73.50;;;;;;4275198;33;20006;-72
2021/05/05 02:14:50;;;;;;;;;;;9.10;73.40;;;;;;4273822;33;20014;-72
2021/05/05 02:17:17;;;;;;;;;;;9.10;73.50;;;;;;4274723;33;20023;-72
2021/05/05 02:19:45;;;;;;;;;;;9.20;73.70;;;;;;4275185;33;20003;-72
2021/05/05 02:22:12;;;;;;;;;;;9.10;73.50;;;;;;4274520;33;20021;-72
2021/05/05 02:24:39;;;;;;;;;;;9.10;73.60;;;;;;4275075;33;20015;-72
2021/05/05 02:27:06;;;;;;;;;;;9.00;73.80;;;;;;4272329;33;44454;-72
2021/05/05 02:29:32;;;;;;;;;;;9.10;73.90;;;;;;4273734;33;40019;-72
2021/05/05 02:32:00;;;;;;;;;;;9.00;73.80;;;;;;4273543;33;44171;-72
2021/05/05 02:34:26;;;;;;;;;;;9.00;73.80;;;;;;4273478;33;44262;-72
2021/05/05 02:36:53;;;;;;;;;;;9.00;73.90;;;;;;4272452;33;43677;-72
2021/05/05 02:39:20;;;;;;;;;;;9.00;74.00;;;;;;4273642;33;44058;-72
2021/05/05 02:41:47;;;;;;;;;;;9.00;74.10;;;;;;4273336;33;40840;-72
2021/05/05 02:44:14;;;;;;;;;;;9.00;74.00;;;;;;4273464;33;39608;-72
2021/05/05 02:46:40;;;;;;;;;;;9.00;74.10;;;;;;4273348;33;38015;-72
2021/05/05 02:49:07;;;;;;;;;;;9.00;74.40;;;;;;4273434;33;43184;-72
2021/05/05 02:51:34;;;;;;;;;;;9.00;74.40;;;;;;4273536;33;43616;-72
2021/05/05 02:54:00;;;;;;;;;;;9.00;74.40;;;;;;4272309;33;44738;-72
2021/05/05 02:56:27;;;;;;;;;;;9.00;74.30;;;;;;4273816;33;43346;-72
2021/05/05 02:58:54;;;;;;;;;;;9.00;74.20;;;;;;4272200;33;43575;-72
2021/05/05 03:01:20;;;;;;;;;;;9.00;74.40;;;;;;4274301;33;44293;-72
2021/05/05 03:03:47;;;;;;;;;;;9.00;74.70;;;;;;4287768;33;45000;-72
2021/05/05 03:06:14;;;;;;;;;;;9.10;74.50;;;;;;4274533;33;43922;-72
2021/05/05 03:08:40;;;;;;;;;;;9.10;74.50;;;;;;4274371;33;42850;-71
2021/05/05 03:11:07;;;;;;;;;;;9.10;74.50;;;;;;4274516;33;43270;-72
2021/05/05 03:13:33;;;;;;;;;;;9.10;75.30;;;;;;4287460;33;38250;-72
2021/05/05 03:16:00;;;;;;;;;;;9.10;74.50;;;;;;4273949;33;44787;-71
2021/05/05 03:18:27;;;;;;;;;;;9.10;74.50;;;;;;4287659;33;43625;-71
2021/05/05 03:20:55;;;;;;;;;;;9.10;74.70;;;;;;4287482;33;43365;-72
2021/05/05 03:23:22;;;;;;;;;;;9.10;74.70;;;;;;4287422;33;43513;-72
2021/05/05 03:25:48;;;;;;;;;;;9.10;74.80;;;;;;4287300;33;38028;-71
2021/05/05 03:28:15;;;;;;;;;;;9.10;75.00;;;;;;4287647;33;41214;-72
2021/05/05 03:30:42;;;;;;;;;;;9.10;74.90;;;;;;4287194;33;37947;-71
2021/05/05 03:33:08;;;;;;;;;;;9.00;75.30;;;;;;4287281;33;42389;-71
2021/05/05 03:35:35;;;;;;;;;;;9.00;75.00;;;;;;4287232;33;42468;-71
2021/05/05 03:38:02;;;;;;;;;;;9.00;75.30;;;;;;4287494;33;38407;-71
2021/05/05 03:40:29;;;;;;;;;;;9.00;75.30;;;;;;4287553;33;32483;-72
2021/05/05 03:42:55;;;;;;;;;;;9.00;75.50;;;;;;4273815;33;42985;-71
2021/05/05 03:45:23;;;;;;;;;;;8.90;75.60;;;;;;4287703;33;29484;-71
2021/05/05 03:47:50;;;;;;;;;;;8.90;75.70;;;;;;4274032;33;43795;-71
2021/05/05 03:50:17;;;;;;;;;;;8.90;75.60;;;;;;4286816;33;43431;-71
2021/05/05 03:52:43;;;;;;;;;;;8.80;75.80;;;;;;4274278;33;44622;-71
2021/05/05 03:55:10;;;;;;;;;;;8.70;75.80;;;;;;4286671;33;44667;-71
2021/05/05 03:57:37;;;;;;;;;;;8.70;76.00;;;;;;4274135;33;43625;-71
2021/05/05 04:00:07;;;;;;;;;;;8.70;76.30;;;;;;4287258;33;25208;-71
2021/05/05 04:02:33;;;;;;;;;;;8.60;76.10;;;;;;4271279;33;44590;-71
2021/05/05 04:05:02;;;;;;;;;;;8.60;76.00;;;;;;4272966;33;39525;-71
2021/05/05 04:07:31;;;;;;;;;;;8.70;76.00;;;;;;4272955;33;40531;-71
2021/05/05 04:09:57;;;;;;;;;;;8.70;75.90;;;;;;4272538;33;44078;-71
2021/05/05 04:12:25;;;;;;;;;;;8.70;76.20;;;;;;4272523;33;43680;-71
2021/05/05 04:15:10;;;;;;;;;;;8.70;75.80;;;;;;4273569;33;20045;-71
2021/05/05 04:17:55;;;;;;;;;;;8.60;75.80;;;;;;4273622;33;20007;-72
2021/05/05 04:20:40;;;;;;;;;;;8.60;75.70;;;;;;4273941;33;20024;-71
2021/05/05 04:23:24;;;;;;;;;;;8.60;75.70;;;;;;4273847;33;20024;-71
2021/05/05 04:26:09;;;;;;;;;;;8.60;75.80;;;;;;4274006;33;20062;-72
2021/05/05 04:28:36;;;;;;;;;;;8.60;75.80;;;;;;4273159;33;20026;-72
2021/05/05 04:31:03;;;;;;;;;;;8.60;75.80;;;;;;4273264;33;20019;-71
2021/05/05 04:33:30;;;;;;;;;;;8.60;75.90;;;;;;4273431;33;20003;-71
2021/05/05 04:35:57;;;;;;;;;;;8.50;76.00;;;;;;4273718;33;20066;-71
2021/05/05 04:38:23;;;;;;;;;;;8.50;76.00;;;;;;4272589;33;19999;-71
2021/05/05 04:40:50;;;;;;;;;;;8.50;76.10;;;;;;4273029;33;20025;-71
2021/05/05 04:43:17;;;;;;;;;;;8.50;76.40;;;;;;4273257;33;20068;-72
2021/05/05 04:45:43;;;;;;;;;;;8.50;76.40;;;;;;4273360;33;20002;-72
2021/05/05 04:48:10;;;;;;;;;;;8.50;76.50;;;;;;4272290;33;20017;-71
2021/05/05 04:50:37;;;;;;;;;;;8.40;77.10;;;;;;4272883;33;20475;-72
2021/05/05 04:53:04;;;;;;;;;;;8.50;76.60;;;;;;4274001;33;20015;-72
2021/05/05 04:55:30;;;;;;;;;;;8.40;76.70;;;;;;4276004;33;20014;-72
2021/05/05 04:57:57;;;;;;;;;;;8.40;76.80;;;;;;4276301;33;20099;-72
2021/05/05 05:00:24;;;;;;;;;;;8.40;76.90;;;;;;4275156;33;34038;-72
2021/05/05 05:02:51;;;;;;;;;;;8.40;76.90;;;;;;4284862;33;44341;-72
2021/05/05 05:05:18;;;;;;;;;;;8.40;76.90;;;;;;4276178;33;46675;-72
2021/05/05 05:07:44;;;;;;;;;;;8.30;76.90;;;;;;4289260;33;39978;-72
2021/05/05 05:10:11;;;;;;;;;;;8.40;77.10;;;;;;4289259;33;44318;-72
2021/05/05 05:12:38;;;;;;;;;;;8.40;77.20;;;;;;4289192;33;43374;-72
2021/05/05 05:15:05;;;;;;;;;;;8.40;77.10;;;;;;4289350;33;43672;-72
2021/05/05 05:17:32;;;;;;;;;;;8.40;77.10;;;;;;4289131;33;44319;-72
2021/05/05 05:19:58;;;;;;;;;;;8.40;77.10;;;;;;4276126;33;36703;-72
2021/05/05 05:22:25;;;;;;;;;;;8.40;77.00;;;;;;4289136;33;43448;-72
2021/05/05 05:24:51;;;;;;;;;;;8.40;77.20;;;;;;4288631;33;44406;-72
2021/05/05 05:27:18;;;;;;;;;;;8.30;77.40;;;;;;4275760;33;41359;-72
2021/05/05 05:29:45;;;;;;;;;;;8.30;77.40;;;;;;4289217;33;44295;-72
2021/05/05 05:32:11;;;;;;;;;;;8.30;77.60;;;;;;4288593;33;42491;-72
2021/05/05 05:34:39;;;;;;;;;;;8.30;78.20;;;;;;4288778;33;35455;-72
2021/05/05 05:37:06;;;;;;;;;;;8.30;78.30;;;;;;4288923;33;43675;-72
2021/05/05 05:39:32;;;;;;;;;;;8.30;78.20;;;;;;4288528;33;44695;-72
2021/05/05 05:41:59;;;;;;;;;;;8.20;78.30;;;;;;4288710;33;43639;-72
2021/05/05 05:44:25;;;;;;;;;;;8.20;78.50;;;;;;4288880;33;44579;-72
2021/05/05 05:46:52;;;;;;;;;;;8.20;78.30;;;;;;4276013;33;44077;-72
2021/05/05 05:49:18;;;;;;;;;;;8.20;78.30;;;;;;4288884;33;44345;-72
2021/05/05 05:51:45;;;;;;;;;;;8.30;78.40;;;;;;4288719;33;43665;-72
2021/05/05 05:54:12;;;;;;;;;;;8.30;78.30;;;;;;4288292;33;43393;-72
2021/05/05 05:56:38;;;;;;;;;;;8.30;78.50;;;;;;4288659;33;42276;-72
2021/05/05 05:59:05;;;;;;;;;;;8.30;78.40;;;;;;4288872;33;41857;-72
2021/05/05 06:01:31;;;;;;;;;;;8.30;78.30;;;;;;4288258;33;40372;-72
2021/05/05 06:03:58;;;;;;;;;;;8.40;78.70;;;;;;4275272;33;43214;-72
2021/05/05 06:06:24;;;;;;;;;;;8.30;78.50;;;;;;4275472;33;45110;-72
2021/05/05 06:08:51;;;;;;;;;;;8.40;78.60;;;;;;4275046;33;45240;-71
2021/05/05 06:11:18;;;;;;;;;;;8.30;79.10;;;;;;4288125;33;40215;-72
2021/05/05 06:13:44;;;;;;;;;;;8.40;79.60;;;;;;4288457;33;43401;-72
2021/05/05 06:16:13;;;;;;;;;;;8.30;79.30;;;;;;4288213;33;44080;-72
2021/05/05 06:18:40;;;;;;;;;;;8.30;79.10;;;;;;4274821;33;44193;-72
2021/05/05 06:21:07;;;;;;;;;;;8.40;79.30;;;;;;4288276;33;42452;-73
2021/05/05 06:23:33;;;;;;;;;;;8.30;79.70;;;;;;4287948;33;44699;-72
2021/05/05 06:26:00;;;;;;;;;;;8.30;79.50;;;;;;4274862;33;44699;-72
2021/05/05 06:28:29;;;;;;;;;;;8.30;79.50;;;;;;4275496;33;43866;-72
2021/05/05 06:30:58;;;;;;;;;;;8.30;79.70;;;;;;4288227;33;44073;-72
2021/05/05 06:33:25;;;;;;;;;;;8.30;80.00;;;;;;4288195;33;44706;-72
2021/05/05 06:35:52;;;;;;;;;;;8.30;80.00;;;;;;4288033;33;44629;-72
2021/05/05 06:38:18;;;;;;;;;;;8.30;80.10;;;;;;4287762;33;42371;-72
2021/05/05 06:40:45;;;;;;;;;;;8.30;80.80;;;;;;4275051;33;43516;-72
2021/05/05 06:43:12;;;;;;;;;;;8.30;80.90;;;;;;4274808;33;42458;-72
2021/05/05 06:45:38;;;;;;;;;;;8.20;80.70;;;;;;4288132;33;37278;-72
2021/05/05 06:48:06;;;;;;;;;;;8.30;80.80;;;;;;4288027;33;43450;-72
2021/05/05 06:50:32;;;;;;;;;;;8.30;80.90;;;;;;4275668;33;20451;-72
2021/05/05 06:52:59;;;;;;;;;;;8.20;80.70;;;;;;4274571;33;40028;-72
2021/05/05 06:55:25;;;;;;;;;;;8.20;80.80;;;;;;4287413;33;43843;-72
2021/05/05 06:57:52;;;;;;;;;;;8.20;80.90;;;;;;4287597;33;43794;-72
2021/05/05 07:00:19;;;;;;;;;;;8.20;81.50;;;;;;4287796;33;45069;-72
2021/05/05 07:02:45;;;;;;;;;;;8.30;81.50;;;;;;4287573;33;38636;-72
2021/05/05 07:05:12;;;;;;;;;;;8.20;81.30;;;;;;4274356;33;38454;-72
2021/05/05 07:07:39;;;;;;;;;;;8.30;81.20;;;;;;4287510;33;43645;-71
2021/05/05 07:10:08;;;;;;;;;;;8.30;81.00;;;;;;4274419;33;43879;-71
2021/05/05 07:12:37;;;;;;;;;;;8.30;81.90;;;;;;4287398;33;39791;-71
2021/05/05 07:15:06;;;;;;;;;;;8.30;81.20;;;;;;4287293;33;40349;-72
2021/05/05 07:17:32;;;;;;;;;;;8.30;81.20;;;;;;4287425;33;43317;-72
2021/05/05 07:19:59;;;;;;;;;;;8.30;80.90;;;;;;4287590;33;43370;-71
2021/05/05 07:22:26;;;;;;;;;;;8.40;80.70;;;;;;4274144;33;43674;-72
2021/05/05 07:24:52;;;;;;;;;;;8.40;80.50;;;;;;4287543;33;42748;-72
2021/05/05 07:27:19;;;;;;;;;;;8.40;80.60;;;;;;4274868;33;20018;-72
2021/05/05 07:29:46;;;;;;;;;;;8.30;80.50;;;;;;4274472;33;43378;-72
2021/05/05 07:32:13;;;;;;;;;;;8.30;80.40;;;;;;4274228;33;45597;-72
2021/05/05 07:34:41;;;;;;;;;;;8.30;80.20;;;;;;4274847;33;20464;-72
2021/05/05 07:37:13;;;;;;;;;;;8.30;80.30;;;;;;4263316;33;20070;-72
2021/05/05 07:47:53;;;;;;;;;;;8.30;80.50;;;;;;4288440;33;20021;-72
2021/05/05 07:50:20;;;;;;;;;;;8.30;80.60;;;;;;4275126;33;19999;-72
2021/05/05 07:52:46;;;;;;;;;;;8.40;80.30;;;;;;4288490;33;20058;-72
2021/05/05 07:55:11;;;;;;;;;;;8.40;80.30;;;;;;4275122;33;20010;-72
2021/05/05 07:57:40;;;;;;;;;;;8.30;80.20;;;;;;4288608;33;20111;-72
2021/05/05 08:00:07;;;;;;;;;;;8.30;80.50;;;;;;4288054;33;20021;-72
2021/05/05 08:02:33;;;;;;;;;;;8.30;80.50;;;;;;4274671;33;20022;-72
2021/05/05 08:05:00;;;;;;;;;;;8.40;80.40;;;;;;4287730;33;20021;-72
2021/05/05 08:07:27;;;;;;;;;;;8.30;80.40;;;;;;4288103;33;20033;-72
2021/05/05 08:09:53;;;;;;;;;;;8.30;80.30;;;;;;4287714;33;20019;-72
2021/05/05 08:12:20;;;;;;;;;;;8.40;80.20;;;;;;4287590;33;20018;-72
2021/05/05 08:14:48;;;;;;;;;;;8.40;79.90;;;;;;4275083;33;20427;-72
2021/05/05 08:17:14;;;;;;;;;;;8.40;79.90;;;;;;4287495;33;20435;-72
2021/05/05 08:19:43;;;;;;;;;;;8.30;79.80;;;;;;4275141;33;20018;-72
2021/05/05 08:22:10;;;;;;;;;;;8.30;80.10;;;;;;4287716;33;20408;-72
2021/05/05 08:24:37;;;;;;;;;;;8.10;80.20;;;;;;4274600;33;20013;-73
2021/05/05 08:27:04;;;;;;;;;;;7.90;80.30;;;;;;4290001;33;20015;-72
2021/05/05 08:29:32;;;;;;;;;;;7.80;80.40;;;;;;4290483;33;20011;-72
2021/05/05 08:31:59;;;;;;;;;;;7.70;80.50;;;;;;4290526;33;20388;-72
2021/05/05 08:34:25;;;;;;;;;;;7.60;81.00;;;;;;4290307;33;20410;-72
2021/05/05 08:36:55;;;;;;;;;;;7.50;81.20;;;;;;4290682;33;20018;-72
2021/05/05 08:39:23;;;;;;;;;;;7.50;81.60;;;;;;4290574;33;20015;-72
2021/05/05 08:41:50;;;;;;;;;;;7.40;81.70;;;;;;4290890;33;20011;-72
2021/05/05 08:44:17;;;;;;;;;;;7.40;82.10;;;;;;4277822;33;20015;-72
2021/05/05 08:46:44;;;;;;;;;;;7.40;82.40;;;;;;4277678;33;20006;-72
2021/05/05 08:49:11;;;;;;;;;;;7.40;82.50;;;;;;4290786;33;20007;-72
2021/05/05 08:51:38;;;;;;;;;;;7.40;82.70;;;;;;4290387;33;20084;-72
2021/05/05 08:54:07;;;;;;;;;;;7.40;82.90;;;;;;4290255;33;20025;-72
2021/05/05 08:56:35;;;;;;;;;;;7.40;83.00;;;;;;4276840;33;20325;-72
2021/05/05 08:59:03;;;;;;;;;;;7.50;83.10;;;;;;4277242;33;20010;-72
2021/05/05 09:01:31;;;;;;;;;;;7.50;83.80;;;;;;4289636;33;20027;-72
2021/05/05 09:03:58;;;;;;;;;;;7.50;83.20;;;;;;4290630;33;20006;-72
2021/05/05 09:06:44;;;;;;;;;;;7.60;83.20;;;;;;4290282;33;20017;-72
2021/05/05 09:09:11;;;;;;;;;;;7.60;83.50;;;;;;4290601;33;20002;-72
2021/05/05 09:11:45;;;;;;;;;;;7.60;83.20;;;;;;4290228;33;20018;-72
2021/05/05 09:14:12;;;;;;;;;;;7.70;83.30;;;;;;4277661;33;20015;-72
2021/05/05 09:16:38;;;;;;;;;;;7.70;82.90;;;;;;4289979;33;20105;-73
2021/05/05 09:19:07;;;;;;;;;;;7.80;83.50;;;;;;4276889;33;20053;-72
2021/05/05 09:21:39;;;;;;;;;;;7.80;84.10;;;;;;4290141;33;20020;-72
2021/05/05 09:24:26;;;;;;;;;;;7.80;83.80;;;;;;4290178;33;19998;-72
2021/05/05 09:27:00;;;;;;;;;;;7.80;83.60;;;;;;4290232;33;20033;-72
2021/05/05 09:29:39;;;;;;;;;;;7.90;84.20;;;;;;4289943;33;20018;-72
2021/05/05 09:32:06;;;;;;;;;;;7.90;83.70;;;;;;4277031;33;20009;-72
2021/05/05 09:34:34;;;;;;;;;;;7.90;83.00;;;;;;4289806;33;20010;-72
2021/05/05 09:37:02;;;;;;;;;;;8.00;83.00;;;;;;4289047;33;20002;-72
2021/05/05 09:39:33;;;;;;;;;;;8.00;83.10;;;;;;4289326;33;20154;-72
2021/05/05 09:42:00;;;;;;;;;;;8.10;82.60;;;;;;4288596;33;38589;-72
2021/05/05 09:44:27;;;;;;;;;;;8.20;82.20;;;;;;4288690;33;38402;-72
2021/05/05 09:46:57;;;;;;;;;;;8.20;81.70;;;;;;4288844;33;44947;-72
2021/05/05 09:49:34;;;;;;;;;;;8.20;81.70;;;;;;4288408;33;43079;-72
2021/05/05 09:52:11;;;;;;;;;;;8.10;81.90;;;;;;4289803;33;20050;-72
2021/05/05 09:54:40;;;;;;;;;;;8.10;82.00;;;;;;4276545;33;20184;-72
2021/05/05 09:57:19;;;;;;;;;;;8.10;82.20;;;;;;4276578;33;20006;-72
2021/05/05 09:59:54;;;;;;;;;;;8.10;82.20;;;;;;4289337;33;20025;-72
2021/05/05 10:02:21;;;;;;;;;;;8.10;82.10;;;;;;4289360;33;20017;-72
2021/05/05 10:05:03;;;;;;;;;;;8.10;82.70;;;;;;4276418;33;20016;-72
2021/05/05 10:07:48;;;;;;;;;;;8.10;82.60;;;;;;4276711;33;20341;-72
2021/05/05 10:10:14;;;;;;;;;;;8.20;82.70;;;;;;4289571;33;19999;-71
2021/05/05 10:12:41;;;;;;;;;;;8.20;83.40;;;;;;4289465;33;20045;-71
2021/05/05 10:15:09;;;;;;;;;;;8.30;83.70;;;;;;4289189;33;20011;-72
2021/05/05 10:17:36;;;;;;;;;;;8.30;82.90;;;;;;4288882;33;20428;-71
2021/05/05 10:20:03;;;;;;;;;;;8.40;83.30;;;;;;4289331;33;20007;-71
2021/05/05 10:22:30;;;;;;;;;;;8.50;83.30;;;;;;4288678;33;20022;-71
2021/05/05 10:24:57;;;;;;;;;;;8.60;83.50;;;;;;4275607;33;21294;-71
2021/05/05 10:27:24;;;;;;;;;;;8.70;82.60;;;;;;4289087;33;20011;-71
2021/05/05 10:29:51;;;;;;;;;;;8.70;81.70;;;;;;4288640;33;20011;-72
2021/05/05 10:32:22;;;;;;;;;;;8.70;81.10;;;;;;4288556;33;20011;-72
2021/05/05 10:34:51;;;;;;;;;;;8.60;80.40;;;;;;4288663;33;20066;-72
2021/05/05 10:37:17;;;;;;;;;;;8.60;80.50;;;;;;4275846;33;20014;-72
2021/05/05 10:39:45;;;;;;;;;;;8.50;80.30;;;;;;4289170;33;20014;-72
2021/05/05 10:42:14;;;;;;;;;;;8.50;80.40;;;;;;4288890;33;20011;-72
2021/05/05 10:44:46;;;;;;;;;;;8.50;80.00;;;;;;4288826;33;20340;-72
2021/05/05 10:47:16;;;;;;;;;;;8.40;79.20;;;;;;4288108;33;38145;-71
2021/05/05 10:49:58;;;;;;;;;;;8.40;79.40;;;;;;4273951;33;40836;-72
2021/05/05 10:52:25;;;;;;;;;;;8.40;78.90;;;;;;4287751;33;43361;-71
2021/05/05 10:54:53;;;;;;;;;;;8.40;79.80;;;;;;4287915;33;42678;-72
2021/05/05 10:57:20;;;;;;;;;;;8.40;80.20;;;;;;4288227;33;35964;-72
2021/05/05 11:00:12;;;;;;;;;;;8.50;80.40;;;;;;4287358;33;44048;-71
2021/05/05 11:02:51;;;;;;;;;;;8.60;80.90;;;;;;4288632;33;20020;-71
2021/05/05 11:05:29;;;;;;;;;;;8.80;80.90;;;;;;4287861;33;44415;-71
2021/05/05 11:07:57;;;;;;;;;;;8.90;80.90;;;;;;4288000;33;43371;-71
2021/05/05 11:10:33;;;;;;;;;;;9.00;80.10;;;;;;4275528;33;20360;-71
2021/05/05 11:13:05;;;;;;;;;;;9.00;79.80;;;;;;4288605;33;19998;-71
2021/05/05 11:15:40;;;;;;;;;;;9.10;79.20;;;;;;4287916;33;20022;-71
2021/05/05 11:18:29;;;;;;;;;;;9.10;79.10;;;;;;4288817;33;20446;-71
2021/05/05 11:20:58;;;;;;;;;;;9.20;79.40;;;;;;4287815;33;44302;-71
2021/05/05 11:23:42;;;;;;;;;;;9.20;79.50;;;;;;4287598;33;42438;-71
2021/05/05 11:26:28;;;;;;;;;;;9.20;79.60;;;;;;4287134;33;42795;-71
2021/05/05 11:28:58;;;;;;;;;;;9.30;79.40;;;;;;4274628;33;43326;-71
2021/05/05 11:31:43;;;;;;;;;;;9.40;79.10;;;;;;4288659;33;20025;-71
2021/05/05 11:34:11;;;;;;;;;;;9.40;79.70;;;;;;4288392;33;20405;-71
2021/05/05 11:36:38;;;;;;;;;;;9.50;79.50;;;;;;4274982;33;20017;-71
2021/05/05 11:39:04;;;;;;;;;;;9.60;78.90;;;;;;4287771;33;20006;-71
2021/05/05 11:41:32;;;;;;;;;;;9.70;78.80;;;;;;4288253;33;20029;-71
2021/05/05 11:43:58;;;;;;;;;;;9.70;78.10;;;;;;4275343;33;19999;-71
2021/05/05 11:46:28;;;;;;;;;;;9.80;77.80;;;;;;4288581;33;20037;-71
2021/05/05 11:48:55;;;;;;;;;;;9.80;77.30;;;;;;4288384;33;20007;-71
2021/05/05 11:51:26;;;;;;;;;;;9.80;76.70;;;;;;4288011;33;20341;-71
2021/05/05 11:53:53;;;;;;;;;;;9.80;77.10;;;;;;4274840;33;20389;-71
2021/05/05 11:56:26;;;;;;;;;;;9.80;77.50;;;;;;4287778;33;20084;-71
2021/05/05 11:59:02;;;;;;;;;;;9.90;76.40;;;;;;4287859;33;20025;-71
2021/05/05 12:01:32;;;;;;;;;;;9.90;75.60;;;;;;4287695;33;20140;-71
2021/05/05 12:04:15;;;;;;;;;;;9.90;76.60;;;;;;4275149;33;20006;-71
2021/05/05 12:06:46;;;;;;;;;;;10.00;76.70;;;;;;4287482;33;20019;-71
2021/05/05 12:09:32;;;;;;;;;;;10.00;75.90;;;;;;4287866;33;20025;-71
2021/05/05 12:12:14;;;;;;;;;;;10.00;76.20;;;;;;4287532;33;20006;-71
2021/05/05 12:14:42;;;;;;;;;;;10.10;76.10;;;;;;4275055;33;20033;-71
2021/05/05 12:17:14;;;;;;;;;;;10.20;75.70;;;;;;4274501;33;20014;-71
2021/05/05 12:19:51;;;;;;;;;;;10.20;75.50;;;;;;4274206;33;21167;-71
2021/05/05 12:22:17;;;;;;;;;;;10.20;74.60;;;;;;4288055;33;20006;-73
2021/05/05 12:25:03;;;;;;;;;;;10.30;74.80;;;;;;4287992;33;19999;-72
2021/05/05 12:27:29;;;;;;;;;;;10.30;74.10;;;;;;4287999;33;20082;-72
2021/05/05 12:29:59;;;;;;;;;;;10.30;72.70;;;;;;4288081;33;20048;-72
2021/05/05 12:32:45;;;;;;;;;;;10.30;73.00;;;;;;4288218;33;20003;-72
2021/05/05 12:35:20;;;;;;;;;;;10.40;72.50;;;;;;4288199;33;20086;-72
2021/05/05 12:37:47;;;;;;;;;;;10.50;74.20;;;;;;4274863;33;20013;-72
2021/05/05 12:40:14;;;;;;;;;;;10.50;74.60;;;;;;4274922;33;20022;-72
2021/05/05 12:42:40;;;;;;;;;;;10.50;74.40;;;;;;4287669;33;20405;-71
2021/05/05 12:45:12;;;;;;;;;;;10.60;74.70;;;;;;4275325;33;20018;-71
2021/05/05 12:47:40;;;;;;;;;;;10.70;74.90;;;;;;4287972;33;20006;-70
2021/05/05 12:50:08;;;;;;;;;;;10.70;75.50;;;;;;4287995;33;20397;-70
2021/05/05 12:52:37;;;;;;;;;;;10.70;75.00;;;;;;4274374;33;20002;-71
2021/05/05 12:55:22;;;;;;;;;;;10.70;74.50;;;;;;4287710;33;20037;-71
2021/05/05 12:57:57;;;;;;;;;;;10.70;75.00;;;;;;4288142;33;20007;-71
2021/05/05 13:00:24;;;;;;;;;;;10.80;75.10;;;;;;4274450;33;20399;-71
2021/05/05 13:03:01;;;;;;;;;;;10.80;74.50;;;;;;4271855;33;20326;-71
2021/05/05 13:05:27;;;;;;;;;;;10.80;74.40;;;;;;4272300;33;20076;-70
2021/05/05 13:07:54;;;;;;;;;;;10.80;74.60;;;;;;4271994;33;20310;-71
2021/05/05 13:10:30;;;;;;;;;;;10.80;73.70;;;;;;4273443;33;20362;-72
2021/05/05 13:13:07;;;;;;;;;;;10.80;73.60;;;;;;4272802;33;20022;-72
2021/05/05 13:32:32;;;;;;;;;;;10.80;71.10;;;;;;4275671;33;20439;-70
2021/05/05 13:35:19;;;;;;;;;;;10.90;70.30;;;;;;4275628;33;20015;-72
2021/05/05 13:37:54;;;;;;;;;;;10.90;71.30;;;;;;4275513;33;20050;-72
2021/05/05 13:40:21;;;;;;;;;;;10.90;71.10;;;;;;4275251;33;21640;-71
2021/05/05 13:42:48;;;;;;;;;;;11.00;70.80;;;;;;4275224;33;20018;-71
2021/05/05 13:45:16;;;;;;;;;;;11.00;70.30;;;;;;4275334;33;20370;-71
2021/05/05 13:48:29;;;;;;;;;;;11.00;70.10;;;;;;4274043;33;20404;-71
2021/05/05 13:50:33;;;;;;;;;;;11.00;70.10;;;;;;4273409;33;20011;-71
2021/05/05 13:53:03;;;;;;;;;;;11.00;69.70;;;;;;4274953;33;20385;-71
2021/05/05 13:55:29;;;;;;;;;;;11.00;70.00;;;;;;4274201;33;20015;-71
2021/05/05 13:57:56;;;;;;;;;;;11.00;70.20;;;;;;4274835;33;19998;-71
2021/05/05 14:00:23;;;;;;;;;;;11.00;69.60;;;;;;4275133;33;20015;-71
2021/05/05 14:02:50;;;;;;;;;;;11.10;70.10;;;;;;4284767;33;20093;-72
2021/05/05 14:05:18;;;;;;;;;;;11.10;70.30;;;;;;4289853;33;20006;-71
2021/05/05 14:07:45;;;;;;;;;;;11.20;70.70;;;;;;4289501;33;20046;-71
2021/05/05 14:10:12;;;;;;;;;;;11.20;70.50;;;;;;4289275;33;20400;-71
2021/05/05 14:12:38;;;;;;;;;;;11.20;70.20;;;;;;4289532;33;20010;-71
2021/05/05 14:15:06;;;;;;;;;;;11.30;70.10;;;;;;4275994;33;20463;-71
2021/05/05 14:17:38;;;;;;;;;;;11.30;69.80;;;;;;4289412;33;20015;-71
2021/05/05 14:20:08;;;;;;;;;;;11.40;69.80;;;;;;4289331;33;20002;-71
2021/05/05 14:22:35;;;;;;;;;;;11.40;69.60;;;;;;4289004;33;20010;-71
2021/05/05 14:25:05;;;;;;;;;;;11.40;69.30;;;;;;4289171;33;20007;-70
2021/05/05 14:27:33;;;;;;;;;;;11.30;69.00;;;;;;4263914;33;20009;-70
2021/05/05 14:30:00;;;;;;;;;;;11.30;69.40;;;;;;4289348;33;20066;-71
2021/05/05 14:32:27;;;;;;;;;;;11.30;69.60;;;;;;4264522;33;20003;-70
2021/05/05 14:34:53;;;;;;;;;;;11.30;69.60;;;;;;4289068;33;20062;-70
2021/05/05 14:37:21;;;;;;;;;;;11.20;69.60;;;;;;4288905;33;20077;-71
2021/05/05 14:39:47;;;;;;;;;;;11.30;69.70;;;;;;4275535;33;20007;-72
2021/05/05 14:42:19;;;;;;;;;;;11.20;69.30;;;;;;4288902;33;20006;-72
2021/05/05 14:45:00;;;;;;;;;;;11.30;69.40;;;;;;4288985;33;20417;-71
2021/05/05 14:50:13;;;;;;;;;;;11.40;69.00;;;;;;4289556;33;20010;-72
2021/05/05 14:52:40;;;;;;;;;;;11.40;69.10;;;;;;4288822;33;20084;-72
2021/05/05 14:55:07;;;;;;;;;;;11.40;69.70;;;;;;4289145;33;20041;-71
2021/05/05 14:57:36;;;;;;;;;;;11.40;67.70;;;;;;4275518;33;20025;-72
2021/05/05 15:00:07;;;;;;;;;;;11.40;67.50;;;;;;4275949;33;20002;-72
2021/05/05 15:02:34;;;;;;;;;;;11.40;68.20;;;;;;4275523;33;20029;-72
2021/05/05 15:05:04;;;;;;;;;;;11.50;68.30;;;;;;4276127;33;20393;-72
2021/05/05 15:07:35;;;;;;;;;;;11.50;68.00;;;;;;4288467;33;20024;-73